Terminal Aerodrome Forecast
Issued by NWS Bismarck, ND

Home | Current Version | Previous Version | Graphics & Text | Print | Product List | Glossary On
Versions: 1 2 3 4 5 6 7 8 9 10 11 12 13 14 15 16
736
FTUS43 KBIS 190520
TAFISN
TAF
KISN 190520Z 1906/2006 10006KT P6SM FEW100 FEW250
     FM191100 13005KT P6SM VCTS SCT070CB OVC200
      TEMPO 1912/1915 5SM -TSRA BKN060CB
     FM191600 18007KT P6SM SCT060 BKN200
     FM192200 01007KT P6SM FEW080 FEW250
     FM200200 04008KT P6SM FEW090 FEW200=

USA.gov is the U.S. government's official web portal to all federal, state and local government web resources and services.